createdAt,value
2023-02-01T00:00:14.821Z,1.42
2023-02-01T00:02:17.400Z,3.08
2023-02-01T00:04:19.751Z,2.38
2023-02-01T00:06:22.339Z,2.72
2023-02-01T00:08:25.112Z,2.90
2023-02-01T00:10:27.474Z,2.75
2023-02-01T00:12:32.390Z,2.83
2023-02-01T00:14:39.469Z,2.67
2023-02-01T00:16:41.909Z,2.67
2023-02-01T00:18:45.531Z,2.50
2023-02-01T00:20:48.268Z,3.60
2023-02-01T00:22:50.536Z,2.33
2023-02-01T00:24:53.362Z,2.95
2023-02-01T00:26:56.311Z,2.28
2023-02-01T00:28:58.796Z,2.80
2023-02-01T00:31:04.098Z,2.20
2023-02-01T00:33:06.751Z,3.20
2023-02-01T00:35:09.776Z,3.97
2023-02-01T00:37:13.345Z,2.83
2023-02-01T00:39:16.640Z,3.40
2023-02-01T00:41:21.159Z,3.67
2023-02-01T00:43:23.908Z,3.95
2023-02-01T00:45:27.017Z,2.92
2023-02-01T00:47:29.632Z,3.10
2023-02-01T00:49:32.071Z,3.92
2023-02-01T00:51:35.185Z,2.78
2023-02-01T00:53:38.572Z,1.50
2023-02-01T00:55:41.028Z,2.17
2023-02-01T00:57:43.613Z,2.58
2023-02-01T00:59:46.481Z,2.88
2023-02-01T01:01:49.662Z,0.85
2023-02-01T01:03:55.513Z,0.38
2023-02-01T01:05:58.784Z,0.65
2023-02-01T01:08:01.160Z,0.50
2023-02-01T01:10:03.941Z,0.57
2023-02-01T01:12:08.934Z,0.32
2023-02-01T01:14:12.335Z,0.22
2023-02-01T01:16:16.189Z,0.47
2023-02-01T01:18:18.724Z,1.17
2023-02-01T01:20:23.337Z,1.02
2023-02-01T01:22:26.446Z,0.90
2023-02-01T01:24:29.463Z,0.43
2023-02-01T01:26:32.265Z,0.32
2023-02-01T01:28:34.898Z,0.10
2023-02-01T01:30:37.954Z,0.45
2023-02-01T01:32:40.990Z,0.20
2023-02-01T01:34:43.595Z,0.30
2023-02-01T01:36:46.201Z,0.40
2023-02-01T01:38:49.102Z,0.35
2023-02-01T01:40:51.456Z,0.70
2023-02-01T01:42:56.111Z,0.60
2023-02-01T01:45:22.458Z,0.77
2023-02-01T01:47:31.502Z,0.77
2023-02-01T01:49:34.582Z,0.93
2023-02-01T01:51:49.293Z,1.23
2023-02-01T01:54:00.398Z,0.70
2023-02-01T01:56:03.549Z,0.70
2023-02-01T01:58:11.390Z,0.32
2023-02-01T02:00:19.118Z,2.22
2023-02-01T02:02:21.787Z,0.52
2023-02-01T02:04:26.497Z,1.08
2023-02-01T02:07:04.340Z,0.52
2023-02-01T02:09:07.392Z,0.98
2023-02-01T02:11:13.309Z,1.33
2023-02-01T02:13:18.163Z,0.55
2023-02-01T02:15:20.710Z,1.35
2023-02-01T02:18:06.064Z,0.43
2023-02-01T02:20:29.837Z,0.63
2023-02-01T02:23:08.175Z,0.75
2023-02-01T02:25:32.366Z,0.60
2023-02-01T02:27:44.783Z,1.00
2023-02-01T02:30:24.627Z,1.65
2023-02-01T02:33:03.947Z,0.82
2023-02-01T02:35:35.884Z,0.68
2023-02-01T02:37:50.681Z,2.22
2023-02-01T02:39:59.275Z,4.93
2023-02-01T02:42:23.761Z,1.50
2023-02-01T02:44:56.047Z,1.45
2023-02-01T02:47:25.069Z,3.00
2023-02-01T02:49:32.854Z,3.30
2023-02-01T02:54:29.775Z,3.35
2023-02-01T02:56:51.475Z,2.85
2023-02-01T02:59:14.015Z,3.17
2023-02-01T03:01:35.606Z,3.40
2023-02-01T03:03:58.704Z,3.70
2023-02-01T03:06:01.194Z,3.45
2023-02-01T03:08:16.284Z,4.57
2023-02-01T03:10:35.583Z,5.47
2023-02-01T03:12:58.270Z,3.65
2023-02-01T03:15:11.480Z,4.93
2023-02-01T03:19:48.703Z,6.28
2023-02-01T03:21:57.417Z,5.18
2023-02-01T03:24:06.333Z,4.28
2023-02-01T03:26:13.438Z,4.03
2023-02-01T03:28:21.424Z,3.08
2023-02-01T03:30:27.774Z,5.18
2023-02-01T03:32:51.329Z,3.72
2023-02-01T03:34:55.076Z,3.58
2023-02-01T03:37:10.893Z,6.65
2023-02-01T03:39:28.854Z,3.38
2023-02-01T03:42:07.154Z,4.60
2023-02-01T03:44:29.221Z,6.03
2023-02-01T03:46:39.614Z,6.20
2023-02-01T03:48:43.736Z,5.65
2023-02-01T03:50:53.653Z,7.03
2023-02-01T03:53:13.585Z,4.90
2023-02-01T03:55:18.914Z,3.97
2023-02-01T03:57:27.413Z,5.38
2023-02-01T03:59:31.523Z,4.32
2023-02-01T04:01:33.973Z,7.45
2023-02-01T04:03:36.984Z,8.73
2023-02-01T04:05:39.873Z,10.85
2023-02-01T04:07:44.530Z,11.25
2023-02-01T04:09:47.185Z,8.18
2023-02-01T04:11:49.696Z,9.55
2023-02-01T04:13:52.088Z,9.63
2023-02-01T04:15:54.332Z,6.55
2023-02-01T04:17:57.113Z,7.00
2023-02-01T04:20:00.126Z,7.88
2023-02-01T04:22:02.802Z,6.10
2023-02-01T04:24:06.169Z,3.63
2023-02-01T04:26:08.466Z,6.15
2023-02-01T04:28:10.906Z,5.50
2023-02-01T04:30:14.147Z,8.85
2023-02-01T04:32:17.618Z,3.85
2023-02-01T04:34:20.184Z,4.07
2023-02-01T04:36:23.391Z,4.85
2023-02-01T04:38:25.988Z,3.95
2023-02-01T04:40:28.299Z,4.28
2023-02-01T04:42:31.049Z,4.30
2023-02-01T04:44:33.458Z,3.78
2023-02-01T04:46:35.737Z,3.75
2023-02-01T04:48:37.936Z,6.43
2023-02-01T04:50:40.202Z,7.10
2023-02-01T04:52:42.915Z,3.22
2023-02-01T04:54:45.194Z,6.28
2023-02-01T04:56:47.470Z,7.18
2023-02-01T04:58:50.207Z,3.83
2023-02-01T05:00:53.171Z,3.35
2023-02-01T05:02:55.496Z,4.88
2023-02-01T05:04:58.108Z,4.63
2023-02-01T05:07:00.815Z,3.80
2023-02-01T05:09:03.078Z,4.90
2023-02-01T05:11:05.941Z,5.07
2023-02-01T05:13:28.594Z,3.63
2023-02-01T05:15:32.210Z,5.43
2023-02-01T05:17:34.507Z,6.55
2023-02-01T05:19:36.760Z,5.13
2023-02-01T05:21:39.374Z,4.35
2023-02-01T05:24:00.347Z,4.97
2023-02-01T05:26:03.130Z,4.25
2023-02-01T05:28:05.526Z,4.15
2023-02-01T05:30:08.467Z,5.10
2023-02-01T05:32:22.151Z,4.18
2023-02-01T05:34:25.334Z,5.82
2023-02-01T05:36:27.712Z,7.20
2023-02-01T05:38:33.480Z,5.65
2023-02-01T05:40:35.971Z,10.60
2023-02-01T05:42:38.155Z,6.35
2023-02-01T05:44:40.614Z,6.07
2023-02-01T05:46:43.004Z,7.80
2023-02-01T05:48:45.511Z,6.82
2023-02-01T05:50:47.969Z,11.55
2023-02-01T05:52:50.287Z,7.45
2023-02-01T05:54:53.892Z,6.68
2023-02-01T05:56:56.425Z,8.20
2023-02-01T05:58:58.958Z,5.75
2023-02-01T06:01:02.682Z,7.63
2023-02-01T06:03:04.978Z,6.65
2023-02-01T06:05:08.586Z,10.20
2023-02-01T06:07:11.686Z,9.23
2023-02-01T06:09:14.649Z,9.27
2023-02-01T06:11:30.556Z,11.55
2023-02-01T06:13:34.968Z,10.27
2023-02-01T06:15:38.858Z,8.45
2023-02-01T06:17:42.654Z,6.45
2023-02-01T06:19:46.044Z,6.07
2023-02-01T06:21:48.335Z,6.80
2023-02-01T06:23:55.481Z,4.00
2023-02-01T06:26:06.763Z,5.55
2023-02-01T06:28:09.499Z,5.70
2023-02-01T06:30:16.084Z,7.55
2023-02-01T06:32:20.833Z,10.07
2023-02-01T06:34:24.757Z,8.43
2023-02-01T06:36:27.196Z,3.90
2023-02-01T06:38:29.702Z,6.47
2023-02-01T06:40:32.280Z,8.30
2023-02-01T06:42:34.480Z,12.40
2023-02-01T06:44:36.790Z,11.55
2023-02-01T06:46:39.375Z,10.20
2023-02-01T06:48:42.365Z,9.32
2023-02-01T06:50:45.106Z,10.02
2023-02-01T06:52:47.858Z,13.45
2023-02-01T06:54:50.107Z,14.65
2023-02-01T06:56:52.669Z,10.43
2023-02-01T06:58:54.936Z,11.75
2023-02-01T07:00:57.588Z,7.05
2023-02-01T07:03:01.646Z,5.80
2023-02-01T07:05:04.112Z,10.82
2023-02-01T07:07:06.497Z,11.55
2023-02-01T07:09:09.655Z,5.47
2023-02-01T07:11:14.363Z,9.48
2023-02-01T07:13:16.721Z,6.32
2023-02-01T07:15:19.123Z,8.55
2023-02-01T07:17:21.850Z,8.93
2023-02-01T07:19:24.478Z,8.40
2023-02-01T07:21:29.276Z,10.15
2023-02-01T07:23:32.614Z,7.75
2023-02-01T07:25:36.537Z,8.90
2023-02-01T07:27:39.234Z,13.27
2023-02-01T07:29:41.420Z,12.60
2023-02-01T07:31:43.852Z,7.88
2023-02-01T07:33:46.240Z,9.07
2023-02-01T07:35:50.265Z,11.93
2023-02-01T07:37:52.579Z,9.43
2023-02-01T07:39:54.971Z,9.85
2023-02-01T07:41:57.992Z,7.50
2023-02-01T07:44:00.831Z,12.95
2023-02-01T07:46:05.191Z,9.18
2023-02-01T07:48:08.126Z,12.48
2023-02-01T07:50:11.120Z,10.25
2023-02-01T07:52:17.151Z,12.00
2023-02-01T07:54:19.995Z,9.18
2023-02-01T07:56:24.162Z,9.10
2023-02-01T07:58:27.652Z,8.23
2023-02-01T08:00:49.315Z,9.95
2023-02-01T08:02:51.766Z,5.18
2023-02-01T08:04:54.844Z,6.45
2023-02-01T08:06:57.004Z,7.80
2023-02-01T08:08:59.512Z,8.23
2023-02-01T08:11:04.202Z,7.82
2023-02-01T08:13:06.411Z,4.38
2023-02-01T08:15:08.847Z,9.50
2023-02-01T08:17:11.269Z,5.43
2023-02-01T08:19:14.329Z,8.60
2023-02-01T08:21:26.991Z,8.90
2023-02-01T08:23:29.384Z,5.55
2023-02-01T08:25:32.945Z,5.97
2023-02-01T08:27:35.910Z,11.38
2023-02-01T08:29:38.291Z,5.80
2023-02-01T08:31:42.151Z,7.45
2023-02-01T08:33:49.339Z,7.97
2023-02-01T08:37:55.178Z,9.27
2023-02-01T08:39:57.664Z,6.93
2023-02-01T08:42:18.408Z,11.07
2023-02-01T08:44:21.449Z,9.40
2023-02-01T08:46:25.240Z,8.70
2023-02-01T08:48:28.146Z,8.95
2023-02-01T08:50:30.596Z,6.95
2023-02-01T08:52:33.128Z,9.70
2023-02-01T08:54:35.987Z,9.02
2023-02-01T08:56:39.108Z,6.65
2023-02-01T08:58:41.908Z,9.10
2023-02-01T09:00:49.449Z,7.95
2023-02-01T09:02:51.920Z,7.95
2023-02-01T09:04:55.228Z,7.65
2023-02-01T09:06:57.540Z,10.07
2023-02-01T09:09:00.149Z,6.97
2023-02-01T09:11:08.873Z,9.23
2023-02-01T09:13:12.701Z,8.93
2023-02-01T09:15:15.893Z,5.38
2023-02-01T09:17:18.351Z,7.00
2023-02-01T09:19:26.292Z,7.53
2023-02-01T09:21:30.884Z,8.35
2023-02-01T09:23:34.203Z,5.18
2023-02-01T09:25:39.939Z,8.15
2023-02-01T09:27:42.691Z,8.18
2023-02-01T09:29:45.095Z,7.70
2023-02-01T09:31:57.813Z,9.35
2023-02-01T09:34:06.407Z,9.88
2023-02-01T09:36:09.069Z,7.90
2023-02-01T09:38:11.776Z,7.45
2023-02-01T09:40:18.585Z,11.73
2023-02-01T09:42:35.868Z,10.43
2023-02-01T09:44:56.317Z,8.80
2023-02-01T09:47:01.034Z,8.45
2023-02-01T09:49:10.628Z,10.30
2023-02-01T09:51:19.655Z,6.82
2023-02-01T09:53:52.183Z,5.85
2023-02-01T09:56:02.012Z,4.68
2023-02-01T09:58:10.001Z,10.02
2023-02-01T10:00:25.473Z,6.63
2023-02-01T10:02:29.992Z,8.05
2023-02-01T10:04:34.863Z,8.05
2023-02-01T10:07:00.199Z,7.40
2023-02-01T10:09:32.282Z,6.53
2023-02-01T10:11:49.622Z,4.38
2023-02-01T10:14:02.749Z,10.02
2023-02-01T10:18:32.339Z,8.40
2023-02-01T10:20:59.128Z,5.70
2023-02-01T10:23:27.316Z,7.18
2023-02-01T10:26:10.723Z,7.35
2023-02-01T10:28:18.252Z,5.80
2023-02-01T10:30:24.622Z,4.63
2023-02-01T10:32:35.913Z,4.97
2023-02-01T10:34:38.740Z,4.50
2023-02-01T10:36:55.208Z,5.55
2023-02-01T10:39:00.362Z,5.28
2023-02-01T10:41:12.349Z,3.38
2023-02-01T10:43:14.813Z,5.45
2023-02-01T10:45:22.780Z,6.13
2023-02-01T10:47:26.043Z,7.13
2023-02-01T10:49:40.330Z,4.70
2023-02-01T10:51:49.038Z,5.13
2023-02-01T10:53:57.052Z,3.88
2023-02-01T10:56:10.777Z,3.60
2023-02-01T10:58:34.338Z,4.25
2023-02-01T11:01:07.670Z,5.70
2023-02-01T11:03:48.283Z,4.72
2023-02-01T11:05:50.969Z,5.45
2023-02-01T11:07:56.752Z,4.00
2023-02-01T11:09:59.500Z,4.22
2023-02-01T11:12:01.912Z,4.95
2023-02-01T11:14:21.305Z,5.15
2023-02-01T11:16:31.803Z,4.88
2023-02-01T11:18:39.005Z,7.30
2023-02-01T11:20:43.370Z,3.70
2023-02-01T11:22:54.242Z,6.80
2023-02-01T11:24:58.681Z,4.68
2023-02-01T11:27:06.827Z,3.53
2023-02-01T11:29:18.903Z,4.70
2023-02-01T11:31:22.029Z,5.38
2023-02-01T11:33:31.542Z,7.50
2023-02-01T11:35:39.898Z,5.30
2023-02-01T11:37:44.297Z,3.88
2023-02-01T11:39:56.362Z,4.35
2023-02-01T11:42:06.753Z,4.97
2023-02-01T11:44:24.417Z,4.20
2023-02-01T11:46:36.824Z,6.03
2023-02-01T11:48:39.147Z,4.30
2023-02-01T11:51:02.845Z,6.57
2023-02-01T11:53:35.424Z,5.18
2023-02-01T11:55:53.455Z,4.53
2023-02-01T11:58:11.352Z,6.22
2023-02-01T12:00:32.153Z,4.50
2023-02-01T12:02:49.074Z,7.63
2023-02-01T12:05:18.419Z,5.75
2023-02-01T12:07:30.222Z,6.45
2023-02-01T12:09:32.955Z,7.25
2023-02-01T12:11:41.615Z,7.50
2023-02-01T12:14:11.973Z,7.38
2023-02-01T12:16:46.382Z,8.85
2023-02-01T12:19:10.432Z,6.05
2023-02-01T12:21:49.631Z,4.53
2023-02-01T12:24:25.415Z,8.13
2023-02-01T12:26:39.425Z,4.60
2023-02-01T12:29:06.510Z,2.85
2023-02-01T12:31:36.191Z,3.05
2023-02-01T12:34:11.930Z,3.03
2023-02-01T12:36:23.708Z,3.55
2023-02-01T12:38:36.303Z,3.55
2023-02-01T12:40:58.928Z,4.20
2023-02-01T12:43:16.507Z,4.97
2023-02-01T12:45:21.955Z,6.65
2023-02-01T12:47:38.196Z,5.32
2023-02-01T12:49:49.489Z,5.45
2023-02-01T12:51:56.763Z,3.45
2023-02-01T12:54:12.216Z,3.38
2023-02-01T12:56:49.201Z,5.40
2023-02-01T12:58:55.931Z,4.38
2023-02-01T13:01:07.996Z,4.78
2023-02-01T13:03:29.096Z,5.00
2023-02-01T13:05:44.299Z,3.58
2023-02-01T13:08:03.970Z,3.67
2023-02-01T13:10:34.757Z,4.05
2023-02-01T13:12:49.943Z,4.50
2023-02-01T13:15:01.923Z,3.75
2023-02-01T13:17:19.769Z,2.88
2023-02-01T13:19:54.180Z,3.22
2023-02-01T13:22:03.313Z,4.30
2023-02-01T13:24:06.246Z,3.60
2023-02-01T13:26:09.698Z,4.95
2023-02-01T13:28:42.154Z,5.28
2023-02-01T13:31:17.047Z,4.47
2023-02-01T13:33:56.449Z,4.65
2023-02-01T13:36:01.989Z,6.72
2023-02-01T13:38:45.854Z,4.35
2023-02-01T13:41:13.759Z,5.75
2023-02-01T13:43:26.142Z,7.22
2023-02-01T13:45:32.964Z,5.00
2023-02-01T13:47:41.208Z,4.45
2023-02-01T13:49:44.057Z,4.38
2023-02-01T13:51:49.810Z,3.58
2023-02-01T13:53:52.513Z,6.22
2023-02-01T13:56:15.322Z,7.07
2023-02-01T13:58:36.092Z,4.53
2023-02-01T14:00:41.085Z,6.10
2023-02-01T14:02:43.487Z,4.43
2023-02-01T14:04:51.687Z,3.65
2023-02-01T14:06:59.029Z,3.92
2023-02-01T14:09:12.582Z,3.22
2023-02-01T14:11:47.398Z,2.58
2023-02-01T14:13:49.889Z,3.45
2023-02-01T14:16:21.690Z,3.70
2023-02-01T14:18:39.059Z,3.10
2023-02-01T14:20:50.278Z,4.50
2023-02-01T14:23:04.919Z,3.30
2023-02-01T14:25:19.225Z,4.00
2023-02-01T14:27:25.547Z,4.60
2023-02-01T14:29:36.792Z,3.97
2023-02-01T14:31:50.857Z,5.25
2023-02-01T14:34:00.358Z,3.95
2023-02-01T14:36:10.562Z,3.20
2023-02-01T14:38:13.096Z,5.32
2023-02-01T14:40:15.445Z,5.25
2023-02-01T14:42:29.441Z,2.95
2023-02-01T14:44:35.127Z,5.47
2023-02-01T14:47:08.468Z,4.78
2023-02-01T14:49:12.129Z,5.10
2023-02-01T14:51:17.916Z,7.30
2023-02-01T14:53:36.200Z,5.97
2023-02-01T14:56:10.889Z,4.35
2023-02-01T14:58:48.175Z,4.97
2023-02-01T15:00:57.002Z,6.13
2023-02-01T15:03:41.016Z,3.38
2023-02-01T15:05:43.341Z,6.43
2023-02-01T15:07:45.703Z,4.85
2023-02-01T15:09:50.263Z,4.55
2023-02-01T15:12:12.321Z,6.00
2023-02-01T15:14:15.621Z,6.30
2023-02-01T15:16:18.966Z,4.93
2023-02-01T15:18:23.690Z,5.28
2023-02-01T15:20:31.350Z,4.75
2023-02-01T15:22:34.225Z,5.60
2023-02-01T15:24:36.764Z,4.88
2023-02-01T15:26:39.262Z,6.25
2023-02-01T15:28:42.321Z,5.63
2023-02-01T15:31:02.392Z,5.43
2023-02-01T15:33:19.292Z,4.60
2023-02-01T15:35:41.871Z,5.47
2023-02-01T15:37:44.243Z,5.47
2023-02-01T15:40:19.821Z,3.15
2023-02-01T15:42:22.121Z,5.10
2023-02-01T15:44:33.528Z,4.93
2023-02-01T15:46:43.918Z,4.72
2023-02-01T15:49:06.423Z,6.72
2023-02-01T15:51:15.797Z,4.32
2023-02-01T15:53:23.024Z,3.10
2023-02-01T15:55:42.241Z,5.70
2023-02-01T15:57:46.903Z,6.80
2023-02-01T15:59:52.657Z,4.88
2023-02-01T16:01:55.270Z,5.35
2023-02-01T16:04:20.585Z,8.02
2023-02-01T16:06:22.789Z,7.15
2023-02-01T16:08:27.953Z,10.57
2023-02-01T16:10:31.081Z,5.45
2023-02-01T16:12:48.744Z,6.60
2023-02-01T16:14:51.770Z,6.95
2023-02-01T16:16:59.669Z,6.47
2023-02-01T16:19:02.101Z,5.63
2023-02-01T16:21:04.517Z,8.45
2023-02-01T16:23:09.555Z,6.65
2023-02-01T16:25:12.465Z,6.15
2023-02-01T16:27:15.334Z,8.15
2023-02-01T16:29:18.267Z,7.35
2023-02-01T16:31:25.784Z,9.20
2023-02-01T16:33:28.494Z,7.57
2023-02-01T16:35:40.027Z,7.20
2023-02-01T16:37:42.317Z,7.63
2023-02-01T16:39:44.932Z,6.97
2023-02-01T16:41:47.474Z,8.63
2023-02-01T16:43:52.495Z,8.85
2023-02-01T16:46:00.159Z,8.52
2023-02-01T16:48:05.655Z,9.57
2023-02-01T16:50:23.495Z,7.18
2023-02-01T16:52:28.403Z,8.73
2023-02-01T16:54:30.918Z,8.27
2023-02-01T16:56:35.298Z,12.63
2023-02-01T16:58:39.876Z,7.97
2023-02-01T17:00:42.937Z,8.32
2023-02-01T17:02:47.523Z,8.15
2023-02-01T17:04:50.309Z,5.53
2023-02-01T17:06:53.193Z,5.70
2023-02-01T17:08:59.318Z,7.30
2023-02-01T17:11:02.286Z,6.97
2023-02-01T17:13:04.653Z,5.35
2023-02-01T17:15:08.032Z,5.20
2023-02-01T17:17:11.350Z,7.00
2023-02-01T17:19:19.580Z,6.28
2023-02-01T17:21:23.597Z,10.98
2023-02-01T17:23:26.541Z,12.13
2023-02-01T17:25:30.974Z,8.27
2023-02-01T17:27:34.321Z,6.18
2023-02-01T17:29:37.532Z,8.48
2023-02-01T17:31:45.167Z,7.10
2023-02-01T17:33:48.131Z,6.50
2023-02-01T17:35:51.044Z,7.32
2023-02-01T17:37:54.198Z,8.15
2023-02-01T17:39:57.619Z,6.80
2023-02-01T17:42:01.789Z,6.13
2023-02-01T17:44:05.864Z,8.35
2023-02-01T17:46:16.060Z,10.75
2023-02-01T17:48:21.098Z,10.70
2023-02-01T17:50:26.602Z,10.85
2023-02-01T17:52:30.070Z,7.20
2023-02-01T17:54:32.946Z,7.78
2023-02-01T17:56:35.420Z,8.07
2023-02-01T17:58:38.359Z,6.90
2023-02-01T18:00:42.460Z,6.57
2023-02-01T18:02:45.450Z,5.95
2023-02-01T18:04:50.108Z,8.15
2023-02-01T18:06:52.831Z,5.80
2023-02-01T18:08:55.876Z,10.43
2023-02-01T18:11:01.116Z,11.07
2023-02-01T18:13:04.328Z,12.73
2023-02-01T18:15:17.037Z,10.32
2023-02-01T18:17:20.646Z,10.05
2023-02-01T18:19:23.466Z,9.60
2023-02-01T18:21:26.163Z,12.85
2023-02-01T18:23:28.548Z,11.80
2023-02-01T18:25:37.760Z,12.05
2023-02-01T18:27:40.467Z,11.05
2023-02-01T18:29:43.027Z,11.65
2023-02-01T18:31:50.231Z,13.50
2023-02-01T18:33:54.803Z,14.63
2023-02-01T18:35:57.747Z,11.65
2023-02-01T18:38:00.618Z,7.70
2023-02-01T18:40:03.529Z,10.10
2023-02-01T18:42:06.103Z,10.85
2023-02-01T18:44:15.678Z,6.55
2023-02-01T18:46:19.731Z,6.68
2023-02-01T18:48:23.206Z,9.77
2023-02-01T18:50:27.078Z,8.73
2023-02-01T18:52:29.663Z,9.20
2023-02-01T18:54:32.482Z,8.90
2023-02-01T18:56:35.072Z,9.27
2023-02-01T18:58:37.542Z,9.95
2023-02-01T19:00:40.385Z,6.80
2023-02-01T19:02:43.500Z,8.55
2023-02-01T19:04:46.644Z,8.30
2023-02-01T19:06:50.472Z,11.00
2023-02-01T19:08:54.985Z,11.98
2023-02-01T19:10:58.028Z,10.65
2023-02-01T19:13:00.807Z,10.00
2023-02-01T19:15:04.752Z,7.40
2023-02-01T19:17:07.430Z,8.00
2023-02-01T19:19:10.516Z,9.00
2023-02-01T19:21:13.904Z,10.35
2023-02-01T19:23:19.197Z,8.57
2023-02-01T19:25:28.300Z,9.30
2023-02-01T19:27:31.082Z,7.75
2023-02-01T19:29:33.684Z,10.15
2023-02-01T19:31:36.495Z,9.05
2023-02-01T19:33:39.924Z,10.10
2023-02-01T19:35:43.060Z,8.98
2023-02-01T19:37:47.088Z,7.10
2023-02-01T19:39:49.709Z,10.68
2023-02-01T19:41:53.150Z,10.18
2023-02-01T19:43:55.716Z,8.13
2023-02-01T19:45:58.496Z,8.02
2023-02-01T19:48:03.695Z,9.65
2023-02-01T19:50:07.887Z,9.63
2023-02-01T19:52:11.205Z,8.50
2023-02-01T19:54:13.996Z,4.63
2023-02-01T19:56:16.902Z,6.82
2023-02-01T19:58:19.502Z,5.38
2023-02-01T20:00:22.078Z,6.07
2023-02-01T20:02:28.092Z,6.28
2023-02-01T20:04:31.147Z,5.15
2023-02-01T20:06:38.924Z,5.75
2023-02-01T20:08:41.506Z,9.75
2023-02-01T20:10:44.363Z,5.63
2023-02-01T20:12:50.398Z,6.53
2023-02-01T20:14:53.326Z,6.75
2023-02-01T20:16:57.407Z,5.82
2023-02-01T20:18:59.952Z,6.40
2023-02-01T20:21:03.891Z,5.53
2023-02-01T20:23:06.893Z,6.93
2023-02-01T20:25:11.958Z,6.95
2023-02-01T20:27:15.273Z,6.85
2023-02-01T20:29:19.315Z,5.65
2023-02-01T20:31:25.497Z,5.88
2023-02-01T20:33:29.429Z,6.82
2023-02-01T20:35:32.200Z,7.97
2023-02-01T20:37:38.344Z,11.95
2023-02-01T20:39:41.122Z,10.27
2023-02-01T20:41:44.039Z,8.63
2023-02-01T20:43:47.175Z,9.93
2023-02-01T20:45:51.717Z,9.57
2023-02-01T20:47:54.465Z,8.75
2023-02-01T20:49:57.569Z,10.77
2023-02-01T20:52:01.170Z,12.88
2023-02-01T20:54:03.951Z,12.40
2023-02-01T20:56:07.559Z,11.65
2023-02-01T20:58:10.940Z,11.68
2023-02-01T21:00:14.435Z,6.40
2023-02-01T21:02:17.411Z,6.57
2023-02-01T21:04:22.472Z,3.55
2023-02-01T21:06:25.272Z,3.30
2023-02-01T21:08:29.592Z,7.68
2023-02-01T21:10:32.196Z,5.03
2023-02-01T21:12:34.793Z,5.32
2023-02-01T21:14:37.192Z,4.40
2023-02-01T21:16:39.854Z,4.18
2023-02-01T21:18:42.782Z,3.13
2023-02-01T21:20:48.249Z,3.67
2023-02-01T21:22:50.867Z,2.78
2023-02-01T21:24:53.195Z,3.20
2023-02-01T21:26:56.629Z,3.53
2023-02-01T21:29:00.121Z,3.20
2023-02-01T21:31:02.498Z,4.00
2023-02-01T21:33:05.550Z,2.45
2023-02-01T21:35:08.791Z,3.03
2023-02-01T21:37:11.202Z,3.20
2023-02-01T21:39:13.446Z,3.53
2023-02-01T21:41:34.867Z,2.40
2023-02-01T21:43:37.538Z,2.78
2023-02-01T21:45:46.149Z,2.78
2023-02-01T21:47:53.742Z,3.63
2023-02-01T21:49:55.984Z,2.45
2023-02-01T21:51:58.855Z,3.22
2023-02-01T21:54:01.531Z,2.75
2023-02-01T21:56:04.234Z,2.85
2023-02-01T21:58:12.810Z,2.42
2023-02-01T22:00:16.010Z,3.00
2023-02-01T22:02:18.823Z,4.07
2023-02-01T22:04:21.482Z,4.47
2023-02-01T22:06:39.124Z,2.88
2023-02-01T22:08:41.817Z,2.60
2023-02-01T22:10:44.295Z,3.80
2023-02-01T22:12:46.893Z,2.63
2023-02-01T22:14:49.994Z,4.38
2023-02-01T22:16:52.589Z,2.28
2023-02-01T22:18:55.338Z,4.80
2023-02-01T22:21:01.440Z,3.80
2023-02-01T22:23:04.111Z,4.65
2023-02-01T22:25:07.841Z,2.10
2023-02-01T22:27:13.549Z,2.25
2023-02-01T22:29:19.701Z,3.00
2023-02-01T22:31:23.106Z,3.35
2023-02-01T22:33:25.872Z,3.25
2023-02-01T22:35:28.621Z,4.13
2023-02-01T22:37:31.278Z,3.25
2023-02-01T22:39:33.728Z,2.15
2023-02-01T22:41:36.048Z,2.40
2023-02-01T22:43:38.805Z,3.15
2023-02-01T22:45:41.105Z,2.50
2023-02-01T22:47:43.627Z,2.97
2023-02-01T22:49:46.151Z,6.55
2023-02-01T22:51:51.408Z,2.80
2023-02-01T22:53:58.525Z,4.28
2023-02-01T22:56:02.506Z,4.00
2023-02-01T22:58:06.332Z,3.72
2023-02-01T23:00:13.529Z,3.35
2023-02-01T23:02:15.803Z,2.33
2023-02-01T23:04:19.245Z,3.35
2023-02-01T23:06:21.726Z,4.10
2023-02-01T23:08:24.265Z,6.15
2023-02-01T23:10:27.557Z,4.25
2023-02-01T23:12:30.359Z,4.13
2023-02-01T23:14:33.264Z,2.63
2023-02-01T23:16:36.852Z,4.25
2023-02-01T23:18:40.759Z,6.60
2023-02-01T23:20:43.600Z,6.88
2023-02-01T23:22:48.152Z,2.75
2023-02-01T23:24:50.546Z,5.05
2023-02-01T23:26:53.469Z,4.30
2023-02-01T23:28:57.464Z,4.55
2023-02-01T23:31:00.215Z,4.55
2023-02-01T23:33:02.571Z,4.10
2023-02-01T23:35:06.219Z,2.72
2023-02-01T23:37:08.871Z,3.10
2023-02-01T23:39:11.610Z,4.38
2023-02-01T23:41:16.511Z,4.50
2023-02-01T23:43:37.848Z,5.60
2023-02-01T23:45:40.553Z,3.97
2023-02-01T23:47:43.178Z,5.20
2023-02-01T23:49:46.064Z,3.92
2023-02-01T23:51:53.124Z,3.70
2023-02-01T23:53:56.592Z,5.35
2023-02-01T23:55:59.539Z,6.53
2023-02-01T23:58:01.863Z,6.75
